sensor_id;sensor_type;location;lat;lon;timestamp;temperature;humidity
35804;DHT22;21924;51.934;7.414;2023-07-31T00:00:58;15.60;99.90
35804;DHT22;21924;51.934;7.414;2023-07-31T00:04:01;15.50;99.90
35804;DHT22;21924;51.934;7.414;2023-07-31T00:07:00;15.50;99.90
35804;DHT22;21924;51.934;7.414;2023-07-31T00:10:02;15.40;99.90
35804;DHT22;21924;51.934;7.414;2023-07-31T00:13:02;15.30;99.90
35804;DHT22;21924;51.934;7.414;2023-07-31T00:16:02;15.30;99.90
35804;DHT22;21924;51.934;7.414;2023-07-31T00:18:46;15.20;99.90
35804;DHT22;21924;51.934;7.414;2023-07-31T00:21:31;15.20;99.90
35804;DHT22;21924;51.934;7.414;2023-07-31T00:24:15;15.20;99.90
35804;DHT22;21924;51.934;7.414;2023-07-31T00:27:02;15.10;99.90
35804;DHT22;21924;51.934;7.414;2023-07-31T00:30:02;15.20;99.90
35804;DHT22;21924;51.934;7.414;2023-07-31T00:37:05;15.10;99.90
35804;DHT22;21924;51.934;7.414;2023-07-31T00:40:05;15.10;99.90
35804;DHT22;21924;51.934;7.414;2023-07-31T00:43:04;15.10;99.90
35804;DHT22;21924;51.934;7.414;2023-07-31T00:46:04;15.10;99.90
35804;DHT22;21924;51.934;7.414;2023-07-31T00:53:04;15.10;99.90
35804;DHT22;21924;51.934;7.414;2023-07-31T00:56:07;15.10;99.90
35804;DHT22;21924;51.934;7.414;2023-07-31T01:03:06;15.20;99.90
35804;DHT22;21924;51.934;7.414;2023-07-31T01:14:03;15.10;99.90
35804;DHT22;21924;51.934;7.414;2023-07-31T01:17:06;15.20;99.90
35804;DHT22;21924;51.934;7.414;2023-07-31T01:31:13;15.10;99.90
35804;DHT22;21924;51.934;7.414;2023-07-31T01:38:13;15.00;99.90
35804;DHT22;21924;51.934;7.414;2023-07-31T01:41:10;15.00;99.90
35804;DHT22;21924;51.934;7.414;2023-07-31T01:44:09;15.00;99.90
35804;DHT22;21924;51.934;7.414;2023-07-31T01:47:12;15.00;99.90
35804;DHT22;21924;51.934;7.414;2023-07-31T01:50:12;15.00;99.90
35804;DHT22;21924;51.934;7.414;2023-07-31T01:53:11;15.00;99.90
35804;DHT22;21924;51.934;7.414;2023-07-31T02:00:11;15.00;99.90
35804;DHT22;21924;51.934;7.414;2023-07-31T02:02:55;15.10;99.90
35804;DHT22;21924;51.934;7.414;2023-07-31T02:05:46;15.00;99.90
35804;DHT22;21924;51.934;7.414;2023-07-31T02:08:49;15.10;99.90
35804;DHT22;21924;51.934;7.414;2023-07-31T02:11:33;15.10;99.90
35804;DHT22;21924;51.934;7.414;2023-07-31T02:14:17;15.10;99.90
35804;DHT22;21924;51.934;7.414;2023-07-31T02:17:02;15.10;99.90
35804;DHT22;21924;51.934;7.414;2023-07-31T02:19:46;15.20;99.90
35804;DHT22;21924;51.934;7.414;2023-07-31T02:22:30;15.30;99.90
35804;DHT22;21924;51.934;7.414;2023-07-31T02:25:17;15.40;99.90
35804;DHT22;21924;51.934;7.414;2023-07-31T02:28:06;15.40;99.90
35804;DHT22;21924;51.934;7.414;2023-07-31T02:30:51;15.40;99.90
35804;DHT22;21924;51.934;7.414;2023-07-31T02:33:36;15.50;99.90
35804;DHT22;21924;51.934;7.414;2023-07-31T02:36:20;15.60;99.90
35804;DHT22;21924;51.934;7.414;2023-07-31T02:39:04;15.60;99.90
35804;DHT22;21924;51.934;7.414;2023-07-31T02:41:49;15.60;99.90
35804;DHT22;21924;51.934;7.414;2023-07-31T02:44:33;15.70;99.90
35804;DHT22;21924;51.934;7.414;2023-07-31T02:47:17;15.70;99.90
35804;DHT22;21924;51.934;7.414;2023-07-31T02:50:03;15.70;99.90
35804;DHT22;21924;51.934;7.414;2023-07-31T02:52:47;15.70;99.90
35804;DHT22;21924;51.934;7.414;2023-07-31T02:55:35;15.70;99.90
35804;DHT22;21924;51.934;7.414;2023-07-31T02:58:19;15.70;99.90
35804;DHT22;21924;51.934;7.414;2023-07-31T03:01:04;15.70;99.90
35804;DHT22;21924;51.934;7.414;2023-07-31T03:03:48;15.70;99.90
35804;DHT22;21924;51.934;7.414;2023-07-31T03:06:33;15.70;99.90
35804;DHT22;21924;51.934;7.414;2023-07-31T03:09:17;15.70;99.90
35804;DHT22;21924;51.934;7.414;2023-07-31T03:12:03;15.60;99.90
35804;DHT22;21924;51.934;7.414;2023-07-31T03:14:49;15.70;99.90
35804;DHT22;21924;51.934;7.414;2023-07-31T03:17:33;15.70;99.90
35804;DHT22;21924;51.934;7.414;2023-07-31T03:20:17;15.70;99.90
35804;DHT22;21924;51.934;7.414;2023-07-31T03:23:01;15.60;99.90
35804;DHT22;21924;51.934;7.414;2023-07-31T03:26:05;15.60;99.90
35804;DHT22;21924;51.934;7.414;2023-07-31T03:28:49;15.60;99.90
35804;DHT22;21924;51.934;7.414;2023-07-31T03:31:34;15.60;99.90
35804;DHT22;21924;51.934;7.414;2023-07-31T03:34:18;15.60;99.90
35804;DHT22;21924;51.934;7.414;2023-07-31T03:37:02;15.60;99.90
35804;DHT22;21924;51.934;7.414;2023-07-31T03:39:46;15.60;99.90
35804;DHT22;21924;51.934;7.414;2023-07-31T03:42:30;15.60;99.90
35804;DHT22;21924;51.934;7.414;2023-07-31T03:45:14;15.60;99.90
35804;DHT22;21924;51.934;7.414;2023-07-31T03:47:59;15.50;99.90
35804;DHT22;21924;51.934;7.414;2023-07-31T03:50:44;15.50;99.90
35804;DHT22;21924;51.934;7.414;2023-07-31T03:53:28;15.50;99.90
35804;DHT22;21924;51.934;7.414;2023-07-31T03:56:13;15.50;99.90
35804;DHT22;21924;51.934;7.414;2023-07-31T03:58:57;15.50;99.90
35804;DHT22;21924;51.934;7.414;2023-07-31T04:01:42;15.50;99.90
35804;DHT22;21924;51.934;7.414;2023-07-31T04:04:26;15.50;99.90
35804;DHT22;21924;51.934;7.414;2023-07-31T04:07:33;15.50;99.90
35804;DHT22;21924;51.934;7.414;2023-07-31T04:10:17;15.50;99.90
35804;DHT22;21924;51.934;7.414;2023-07-31T04:13:01;15.50;99.90
35804;DHT22;21924;51.934;7.414;2023-07-31T04:15:49;15.50;99.90
35804;DHT22;21924;51.934;7.414;2023-07-31T04:18:34;15.50;99.90
35804;DHT22;21924;51.934;7.414;2023-07-31T04:21:21;15.50;99.90
35804;DHT22;21924;51.934;7.414;2023-07-31T04:24:08;15.40;99.90
35804;DHT22;21924;51.934;7.414;2023-07-31T04:26:56;15.50;99.90
35804;DHT22;21924;51.934;7.414;2023-07-31T04:29:45;15.40;99.90
35804;DHT22;21924;51.934;7.414;2023-07-31T04:32:49;15.50;99.90
35804;DHT22;21924;51.934;7.414;2023-07-31T04:35:34;15.40;99.90
35804;DHT22;21924;51.934;7.414;2023-07-31T04:38:19;15.40;99.90
35804;DHT22;21924;51.934;7.414;2023-07-31T04:41:03;15.50;99.90
35804;DHT22;21924;51.934;7.414;2023-07-31T04:44:07;15.50;99.90
35804;DHT22;21924;51.934;7.414;2023-07-31T04:46:51;15.40;99.90
35804;DHT22;21924;51.934;7.414;2023-07-31T04:49:35;15.50;99.90
35804;DHT22;21924;51.934;7.414;2023-07-31T04:52:19;15.40;99.90
35804;DHT22;21924;51.934;7.414;2023-07-31T04:55:04;15.50;99.90
35804;DHT22;21924;51.934;7.414;2023-07-31T04:57:48;15.40;99.90
35804;DHT22;21924;51.934;7.414;2023-07-31T05:00:33;15.40;99.90
35804;DHT22;21924;51.934;7.414;2023-07-31T05:03:17;15.50;99.90
35804;DHT22;21924;51.934;7.414;2023-07-31T05:06:02;15.50;99.90
35804;DHT22;21924;51.934;7.414;2023-07-31T05:08:48;15.50;99.90
35804;DHT22;21924;51.934;7.414;2023-07-31T05:11:32;15.50;99.90
35804;DHT22;21924;51.934;7.414;2023-07-31T05:14:17;15.50;99.90
35804;DHT22;21924;51.934;7.414;2023-07-31T05:17:02;15.50;99.90
35804;DHT22;21924;51.934;7.414;2023-07-31T05:19:46;15.50;99.90
35804;DHT22;21924;51.934;7.414;2023-07-31T05:22:31;15.60;99.90
35804;DHT22;21924;51.934;7.414;2023-07-31T05:25:16;15.60;99.90
35804;DHT22;21924;51.934;7.414;2023-07-31T05:28:01;15.60;99.90
35804;DHT22;21924;51.934;7.414;2023-07-31T05:30:46;15.60;99.90
35804;DHT22;21924;51.934;7.414;2023-07-31T05:33:32;15.70;99.90
35804;DHT22;21924;51.934;7.414;2023-07-31T05:36:18;15.70;99.90
35804;DHT22;21924;51.934;7.414;2023-07-31T05:39:03;15.80;99.90
35804;DHT22;21924;51.934;7.414;2023-07-31T05:42:01;15.80;99.90
35804;DHT22;21924;51.934;7.414;2023-07-31T05:44:51;15.90;99.90
35804;DHT22;21924;51.934;7.414;2023-07-31T05:47:42;16.00;99.90
35804;DHT22;21924;51.934;7.414;2023-07-31T05:50:28;15.90;99.90
35804;DHT22;21924;51.934;7.414;2023-07-31T05:53:20;16.00;99.90
35804;DHT22;21924;51.934;7.414;2023-07-31T05:56:06;15.90;99.90
35804;DHT22;21924;51.934;7.414;2023-07-31T05:58:50;15.80;99.90
35804;DHT22;21924;51.934;7.414;2023-07-31T06:01:34;15.90;99.90
35804;DHT22;21924;51.934;7.414;2023-07-31T06:04:18;15.90;99.90
35804;DHT22;21924;51.934;7.414;2023-07-31T06:07:03;15.90;99.90
35804;DHT22;21924;51.934;7.414;2023-07-31T06:09:47;15.90;99.90
35804;DHT22;21924;51.934;7.414;2023-07-31T06:12:32;15.90;99.90
35804;DHT22;21924;51.934;7.414;2023-07-31T06:15:21;15.90;99.90
35804;DHT22;21924;51.934;7.414;2023-07-31T06:18:05;15.90;99.90
35804;DHT22;21924;51.934;7.414;2023-07-31T06:20:51;15.90;99.90
35804;DHT22;21924;51.934;7.414;2023-07-31T06:23:37;15.90;99.90
35804;DHT22;21924;51.934;7.414;2023-07-31T06:26:21;16.00;99.90
35804;DHT22;21924;51.934;7.414;2023-07-31T06:29:10;16.00;99.90
35804;DHT22;21924;51.934;7.414;2023-07-31T06:31:55;16.10;99.90
35804;DHT22;21924;51.934;7.414;2023-07-31T06:34:40;16.20;99.90
35804;DHT22;21924;51.934;7.414;2023-07-31T06:37:47;16.20;99.90
35804;DHT22;21924;51.934;7.414;2023-07-31T06:40:37;16.30;99.90
35804;DHT22;21924;51.934;7.414;2023-07-31T06:43:22;16.30;99.90
35804;DHT22;21924;51.934;7.414;2023-07-31T06:46:08;16.30;99.90
35804;DHT22;21924;51.934;7.414;2023-07-31T06:48:52;16.30;99.90
35804;DHT22;21924;51.934;7.414;2023-07-31T06:51:36;16.20;99.90
35804;DHT22;21924;51.934;7.414;2023-07-31T06:54:43;16.20;99.90
35804;DHT22;21924;51.934;7.414;2023-07-31T06:57:27;16.20;99.90
35804;DHT22;21924;51.934;7.414;2023-07-31T07:00:42;16.20;99.90
35804;DHT22;21924;51.934;7.414;2023-07-31T07:10:44;16.10;99.90
35804;DHT22;21924;51.934;7.414;2023-07-31T07:13:29;16.10;99.90
35804;DHT22;21924;51.934;7.414;2023-07-31T07:16:44;16.10;99.90
35804;DHT22;21924;51.934;7.414;2023-07-31T07:19:49;16.10;99.90
35804;DHT22;21924;51.934;7.414;2023-07-31T07:22:39;16.10;99.90
35804;DHT22;21924;51.934;7.414;2023-07-31T07:25:44;16.20;99.90
35804;DHT22;21924;51.934;7.414;2023-07-31T07:28:44;16.20;99.90
35804;DHT22;21924;51.934;7.414;2023-07-31T07:31:34;16.30;99.90
35804;DHT22;21924;51.934;7.414;2023-07-31T07:34:39;16.40;99.90
35804;DHT22;21924;51.934;7.414;2023-07-31T07:37:45;16.50;99.90
35804;DHT22;21924;51.934;7.414;2023-07-31T07:40:47;16.50;99.90
35804;DHT22;21924;51.934;7.414;2023-07-31T07:43:51;16.50;99.90
35804;DHT22;21924;51.934;7.414;2023-07-31T07:46:48;16.50;99.90
35804;DHT22;21924;51.934;7.414;2023-07-31T07:53:21;16.50;99.90
35804;DHT22;21924;51.934;7.414;2023-07-31T07:56:14;16.60;99.90
35804;DHT22;21924;51.934;7.414;2023-07-31T07:58:58;16.60;99.90
35804;DHT22;21924;51.934;7.414;2023-07-31T08:01:48;16.70;99.90
35804;DHT22;21924;51.934;7.414;2023-07-31T08:04:49;16.60;99.90
35804;DHT22;21924;51.934;7.414;2023-07-31T08:11:13;16.70;99.90
35804;DHT22;21924;51.934;7.414;2023-07-31T08:13:58;16.60;99.90
35804;DHT22;21924;51.934;7.414;2023-07-31T08:16:45;16.70;99.90
35804;DHT22;21924;51.934;7.414;2023-07-31T08:19:29;16.70;99.90
35804;DHT22;21924;51.934;7.414;2023-07-31T08:22:51;16.80;99.90
35804;DHT22;21924;51.934;7.414;2023-07-31T08:25:39;16.80;99.90
35804;DHT22;21924;51.934;7.414;2023-07-31T08:28:32;16.90;99.90
35804;DHT22;21924;51.934;7.414;2023-07-31T08:31:19;16.90;99.90
35804;DHT22;21924;51.934;7.414;2023-07-31T08:34:09;16.90;99.90
35804;DHT22;21924;51.934;7.414;2023-07-31T08:36:53;17.00;99.90
35804;DHT22;21924;51.934;7.414;2023-07-31T08:39:37;17.00;99.90
35804;DHT22;21924;51.934;7.414;2023-07-31T08:42:23;16.90;99.90
35804;DHT22;21924;51.934;7.414;2023-07-31T08:45:14;16.90;99.90
35804;DHT22;21924;51.934;7.414;2023-07-31T08:47:59;16.90;99.90
35804;DHT22;21924;51.934;7.414;2023-07-31T08:50:43;17.00;99.90
35804;DHT22;21924;51.934;7.414;2023-07-31T08:53:28;17.00;99.90
35804;DHT22;21924;51.934;7.414;2023-07-31T08:56:25;17.00;99.90
35804;DHT22;21924;51.934;7.414;2023-07-31T08:59:29;17.00;99.90
35804;DHT22;21924;51.934;7.414;2023-07-31T09:02:35;17.00;99.90
35804;DHT22;21924;51.934;7.414;2023-07-31T09:05:23;16.90;99.90
35804;DHT22;21924;51.934;7.414;2023-07-31T09:08:09;16.80;99.90
35804;DHT22;21924;51.934;7.414;2023-07-31T09:11:03;16.90;99.90
35804;DHT22;21924;51.934;7.414;2023-07-31T09:13:48;16.90;99.90
35804;DHT22;21924;51.934;7.414;2023-07-31T09:16:33;17.00;99.90
35804;DHT22;21924;51.934;7.414;2023-07-31T09:19:33;17.00;99.90
35804;DHT22;21924;51.934;7.414;2023-07-31T09:22:31;16.90;99.90
35804;DHT22;21924;51.934;7.414;2023-07-31T09:25:24;16.90;99.90
35804;DHT22;21924;51.934;7.414;2023-07-31T09:28:10;16.80;99.90
35804;DHT22;21924;51.934;7.414;2023-07-31T09:30:56;16.90;99.90
35804;DHT22;21924;51.934;7.414;2023-07-31T09:33:58;16.90;99.90
35804;DHT22;21924;51.934;7.414;2023-07-31T09:36:49;16.90;99.90
35804;DHT22;21924;51.934;7.414;2023-07-31T09:39:46;16.80;99.90
35804;DHT22;21924;51.934;7.414;2023-07-31T09:42:34;16.90;99.90
35804;DHT22;21924;51.934;7.414;2023-07-31T09:45:19;17.00;99.90
35804;DHT22;21924;51.934;7.414;2023-07-31T09:48:03;17.10;99.90
35804;DHT22;21924;51.934;7.414;2023-07-31T09:50:53;17.20;99.90
35804;DHT22;21924;51.934;7.414;2023-07-31T09:53:39;17.30;99.90
35804;DHT22;21924;51.934;7.414;2023-07-31T09:56:24;17.30;99.90
35804;DHT22;21924;51.934;7.414;2023-07-31T09:59:15;17.30;99.90
35804;DHT22;21924;51.934;7.414;2023-07-31T10:02:00;17.20;99.90
35804;DHT22;21924;51.934;7.414;2023-07-31T10:04:45;17.20;99.90
35804;DHT22;21924;51.934;7.414;2023-07-31T10:07:38;17.20;99.90
35804;DHT22;21924;51.934;7.414;2023-07-31T10:10:26;17.30;99.90
35804;DHT22;21924;51.934;7.414;2023-07-31T10:13:15;17.30;99.90
35804;DHT22;21924;51.934;7.414;2023-07-31T10:16:00;17.30;99.90
35804;DHT22;21924;51.934;7.414;2023-07-31T10:18:45;17.40;99.90
35804;DHT22;21924;51.934;7.414;2023-07-31T10:21:31;17.30;99.90
35804;DHT22;21924;51.934;7.414;2023-07-31T10:24:19;17.40;99.90
35804;DHT22;21924;51.934;7.414;2023-07-31T10:27:04;17.30;99.90
35804;DHT22;21924;51.934;7.414;2023-07-31T10:29:49;17.30;99.90
35804;DHT22;21924;51.934;7.414;2023-07-31T10:32:36;17.30;99.90
35804;DHT22;21924;51.934;7.414;2023-07-31T10:35:21;17.40;99.90
35804;DHT22;21924;51.934;7.414;2023-07-31T10:38:13;17.30;99.90
35804;DHT22;21924;51.934;7.414;2023-07-31T10:41:08;17.30;99.90
35804;DHT22;21924;51.934;7.414;2023-07-31T10:43:59;17.30;99.90
35804;DHT22;21924;51.934;7.414;2023-07-31T10:46:45;17.40;99.90
35804;DHT22;21924;51.934;7.414;2023-07-31T10:49:29;17.40;99.90
35804;DHT22;21924;51.934;7.414;2023-07-31T10:52:19;17.40;99.90
35804;DHT22;21924;51.934;7.414;2023-07-31T10:55:28;17.40;99.90
35804;DHT22;21924;51.934;7.414;2023-07-31T10:58:18;17.40;99.90
35804;DHT22;21924;51.934;7.414;2023-07-31T11:01:04;17.40;99.90
35804;DHT22;21924;51.934;7.414;2023-07-31T11:03:49;17.50;99.90
35804;DHT22;21924;51.934;7.414;2023-07-31T11:06:37;17.40;99.90
35804;DHT22;21924;51.934;7.414;2023-07-31T11:09:22;17.40;99.90
35804;DHT22;21924;51.934;7.414;2023-07-31T11:12:06;17.50;99.90
35804;DHT22;21924;51.934;7.414;2023-07-31T11:14:58;17.50;99.90
35804;DHT22;21924;51.934;7.414;2023-07-31T11:17:42;17.40;99.90
35804;DHT22;21924;51.934;7.414;2023-07-31T11:20:28;17.30;99.90
35804;DHT22;21924;51.934;7.414;2023-07-31T11:23:17;17.30;99.90
35804;DHT22;21924;51.934;7.414;2023-07-31T11:26:09;17.30;99.90
35804;DHT22;21924;51.934;7.414;2023-07-31T11:28:54;17.40;99.90
35804;DHT22;21924;51.934;7.414;2023-07-31T11:31:47;17.40;99.90
35804;DHT22;21924;51.934;7.414;2023-07-31T11:34:32;17.40;99.90
35804;DHT22;21924;51.934;7.414;2023-07-31T11:37:16;17.30;99.90
35804;DHT22;21924;51.934;7.414;2023-07-31T11:40:01;17.40;99.90
35804;DHT22;21924;51.934;7.414;2023-07-31T11:42:45;17.30;99.90
35804;DHT22;21924;51.934;7.414;2023-07-31T11:45:30;17.40;99.90
35804;DHT22;21924;51.934;7.414;2023-07-31T11:48:25;17.50;99.90
35804;DHT22;21924;51.934;7.414;2023-07-31T11:51:13;17.50;99.90
35804;DHT22;21924;51.934;7.414;2023-07-31T11:54:00;17.50;99.90
35804;DHT22;21924;51.934;7.414;2023-07-31T11:56:49;17.60;99.90
35804;DHT22;21924;51.934;7.414;2023-07-31T11:59:34;17.70;99.90
35804;DHT22;21924;51.934;7.414;2023-07-31T12:02:19;17.70;99.90
35804;DHT22;21924;51.934;7.414;2023-07-31T12:05:05;17.90;99.90
35804;DHT22;21924;51.934;7.414;2023-07-31T12:07:55;18.00;99.90
35804;DHT22;21924;51.934;7.414;2023-07-31T12:10:40;18.10;99.90
35804;DHT22;21924;51.934;7.414;2023-07-31T12:13:26;18.30;99.90
35804;DHT22;21924;51.934;7.414;2023-07-31T12:16:10;18.30;99.90
35804;DHT22;21924;51.934;7.414;2023-07-31T12:18:54;18.50;99.90
35804;DHT22;21924;51.934;7.414;2023-07-31T12:21:40;18.40;99.90
35804;DHT22;21924;51.934;7.414;2023-07-31T12:24:26;18.50;99.90
35804;DHT22;21924;51.934;7.414;2023-07-31T12:27:15;18.60;99.90
35804;DHT22;21924;51.934;7.414;2023-07-31T12:30:00;18.80;99.90
35804;DHT22;21924;51.934;7.414;2023-07-31T12:32:45;18.90;99.90
35804;DHT22;21924;51.934;7.414;2023-07-31T12:35:42;18.80;99.90
35804;DHT22;21924;51.934;7.414;2023-07-31T12:38:27;18.90;99.90
35804;DHT22;21924;51.934;7.414;2023-07-31T12:41:13;18.90;99.90
35804;DHT22;21924;51.934;7.414;2023-07-31T12:43:58;18.90;99.90
35804;DHT22;21924;51.934;7.414;2023-07-31T12:46:42;18.90;99.90
35804;DHT22;21924;51.934;7.414;2023-07-31T12:49:28;18.90;99.90
35804;DHT22;21924;51.934;7.414;2023-07-31T12:52:13;18.80;99.90
35804;DHT22;21924;51.934;7.414;2023-07-31T12:54:57;18.60;99.90
35804;DHT22;21924;51.934;7.414;2023-07-31T12:57:42;18.60;99.90
35804;DHT22;21924;51.934;7.414;2023-07-31T13:00:26;18.50;99.90
35804;DHT22;21924;51.934;7.414;2023-07-31T13:03:10;18.50;99.90
35804;DHT22;21924;51.934;7.414;2023-07-31T13:05:55;18.40;99.90
35804;DHT22;21924;51.934;7.414;2023-07-31T13:08:39;18.40;99.90
35804;DHT22;21924;51.934;7.414;2023-07-31T13:11:23;18.40;99.90
35804;DHT22;21924;51.934;7.414;2023-07-31T13:14:07;18.40;99.90
35804;DHT22;21924;51.934;7.414;2023-07-31T13:16:56;18.40;99.90
35804;DHT22;21924;51.934;7.414;2023-07-31T13:19:40;18.30;99.90
35804;DHT22;21924;51.934;7.414;2023-07-31T13:22:26;18.40;99.90
35804;DHT22;21924;51.934;7.414;2023-07-31T13:25:10;18.50;99.90
35804;DHT22;21924;51.934;7.414;2023-07-31T13:27:55;18.50;99.90
35804;DHT22;21924;51.934;7.414;2023-07-31T13:30:39;18.50;99.90
35804;DHT22;21924;51.934;7.414;2023-07-31T13:33:24;18.60;99.90
35804;DHT22;21924;51.934;7.414;2023-07-31T13:36:09;18.60;99.90
35804;DHT22;21924;51.934;7.414;2023-07-31T13:39:16;18.60;99.90
35804;DHT22;21924;51.934;7.414;2023-07-31T13:42:06;18.90;99.90
35804;DHT22;21924;51.934;7.414;2023-07-31T13:44:52;19.30;99.90
35804;DHT22;21924;51.934;7.414;2023-07-31T13:47:36;19.40;99.90
35804;DHT22;21924;51.934;7.414;2023-07-31T13:50:22;19.20;99.90
35804;DHT22;21924;51.934;7.414;2023-07-31T13:53:06;19.20;99.90
35804;DHT22;21924;51.934;7.414;2023-07-31T13:55:51;19.10;99.90
35804;DHT22;21924;51.934;7.414;2023-07-31T13:58:36;19.00;99.90
35804;DHT22;21924;51.934;7.414;2023-07-31T14:01:21;18.90;99.90
35804;DHT22;21924;51.934;7.414;2023-07-31T14:04:06;18.80;99.90
35804;DHT22;21924;51.934;7.414;2023-07-31T14:06:51;18.90;99.90
35804;DHT22;21924;51.934;7.414;2023-07-31T14:09:36;19.00;99.90
35804;DHT22;21924;51.934;7.414;2023-07-31T14:12:20;19.10;99.90
35804;DHT22;21924;51.934;7.414;2023-07-31T14:15:34;19.20;99.90
35804;DHT22;21924;51.934;7.414;2023-07-31T14:18:38;19.20;99.90
35804;DHT22;21924;51.934;7.414;2023-07-31T14:21:27;19.10;99.90
35804;DHT22;21924;51.934;7.414;2023-07-31T14:24:16;19.00;99.90
35804;DHT22;21924;51.934;7.414;2023-07-31T14:27:01;18.90;99.90
35804;DHT22;21924;51.934;7.414;2023-07-31T14:30:11;18.90;99.90
35804;DHT22;21924;51.934;7.414;2023-07-31T14:32:55;18.80;99.90
35804;DHT22;21924;51.934;7.414;2023-07-31T14:35:39;18.80;99.90
35804;DHT22;21924;51.934;7.414;2023-07-31T14:38:27;18.70;99.90
35804;DHT22;21924;51.934;7.414;2023-07-31T14:41:17;18.70;99.90
35804;DHT22;21924;51.934;7.414;2023-07-31T14:44:02;18.90;99.90
35804;DHT22;21924;51.934;7.414;2023-07-31T14:47:00;19.00;99.90
35804;DHT22;21924;51.934;7.414;2023-07-31T14:49:45;18.90;99.90
35804;DHT22;21924;51.934;7.414;2023-07-31T14:52:38;18.70;99.90
35804;DHT22;21924;51.934;7.414;2023-07-31T14:55:47;18.70;99.90
35804;DHT22;21924;51.934;7.414;2023-07-31T14:59:26;18.70;99.90
35804;DHT22;21924;51.934;7.414;2023-07-31T15:02:41;18.70;99.90
35804;DHT22;21924;51.934;7.414;2023-07-31T15:05:28;18.80;99.90
35804;DHT22;21924;51.934;7.414;2023-07-31T15:08:16;18.70;99.90
35804;DHT22;21924;51.934;7.414;2023-07-31T15:11:05;18.70;99.90
35804;DHT22;21924;51.934;7.414;2023-07-31T15:13:49;18.70;99.90
35804;DHT22;21924;51.934;7.414;2023-07-31T15:16:33;18.70;99.90
35804;DHT22;21924;51.934;7.414;2023-07-31T15:19:27;18.70;99.90
35804;DHT22;21924;51.934;7.414;2023-07-31T15:22:13;18.70;99.90
35804;DHT22;21924;51.934;7.414;2023-07-31T15:25:32;18.60;99.90
35804;DHT22;21924;51.934;7.414;2023-07-31T15:28:35;18.60;99.90
35804;DHT22;21924;51.934;7.414;2023-07-31T15:31:39;18.50;99.90
35804;DHT22;21924;51.934;7.414;2023-07-31T15:34:32;18.40;99.90
35804;DHT22;21924;51.934;7.414;2023-07-31T15:37:18;18.40;99.90
35804;DHT22;21924;51.934;7.414;2023-07-31T15:40:02;18.30;99.90
35804;DHT22;21924;51.934;7.414;2023-07-31T15:43:05;18.30;99.90
35804;DHT22;21924;51.934;7.414;2023-07-31T15:46:36;18.30;99.90
35804;DHT22;21924;51.934;7.414;2023-07-31T15:49:40;18.30;99.90
35804;DHT22;21924;51.934;7.414;2023-07-31T15:52:24;18.20;99.90
35804;DHT22;21924;51.934;7.414;2023-07-31T15:55:11;18.20;99.90
35804;DHT22;21924;51.934;7.414;2023-07-31T15:57:56;18.20;99.90
35804;DHT22;21924;51.934;7.414;2023-07-31T16:00:40;18.00;99.90
35804;DHT22;21924;51.934;7.414;2023-07-31T16:03:24;18.10;99.90
35804;DHT22;21924;51.934;7.414;2023-07-31T16:06:08;18.00;99.90
35804;DHT22;21924;51.934;7.414;2023-07-31T16:08:53;18.00;99.90
35804;DHT22;21924;51.934;7.414;2023-07-31T16:11:39;18.00;99.90
35804;DHT22;21924;51.934;7.414;2023-07-31T16:14:23;17.90;99.90
35804;DHT22;21924;51.934;7.414;2023-07-31T16:17:07;17.90;99.90
35804;DHT22;21924;51.934;7.414;2023-07-31T16:19:52;17.90;99.90
35804;DHT22;21924;51.934;7.414;2023-07-31T16:22:36;17.80;99.90
35804;DHT22;21924;51.934;7.414;2023-07-31T16:25:40;17.80;99.90
35804;DHT22;21924;51.934;7.414;2023-07-31T16:28:25;17.80;99.90
35804;DHT22;21924;51.934;7.414;2023-07-31T16:31:10;17.70;99.90
35804;DHT22;21924;51.934;7.414;2023-07-31T16:33:54;17.70;99.90
35804;DHT22;21924;51.934;7.414;2023-07-31T16:36:39;17.70;99.90
35804;DHT22;21924;51.934;7.414;2023-07-31T16:39:24;17.70;99.90
35804;DHT22;21924;51.934;7.414;2023-07-31T16:42:11;17.70;99.90
35804;DHT22;21924;51.934;7.414;2023-07-31T16:45:19;17.70;99.90
35804;DHT22;21924;51.934;7.414;2023-07-31T16:52:14;17.60;99.90
35804;DHT22;21924;51.934;7.414;2023-07-31T16:55:14;17.70;99.90
35804;DHT22;21924;51.934;7.414;2023-07-31T16:57:58;17.70;99.90
35804;DHT22;21924;51.934;7.414;2023-07-31T17:00:42;17.60;99.90
35804;DHT22;21924;51.934;7.414;2023-07-31T17:03:28;17.50;99.90
35804;DHT22;21924;51.934;7.414;2023-07-31T17:06:13;17.60;99.90
35804;DHT22;21924;51.934;7.414;2023-07-31T17:08:58;17.70;99.90
35804;DHT22;21924;51.934;7.414;2023-07-31T17:11:43;17.60;99.90
35804;DHT22;21924;51.934;7.414;2023-07-31T17:14:27;17.60;99.90
35804;DHT22;21924;51.934;7.414;2023-07-31T17:17:11;17.60;99.90
35804;DHT22;21924;51.934;7.414;2023-07-31T17:19:55;17.60;99.90
35804;DHT22;21924;51.934;7.414;2023-07-31T17:26:49;17.50;99.90
35804;DHT22;21924;51.934;7.414;2023-07-31T17:41:48;17.30;99.90
35804;DHT22;21924;51.934;7.414;2023-07-31T17:44:32;17.30;99.90
35804;DHT22;21924;51.934;7.414;2023-07-31T17:47:19;17.30;99.90
35804;DHT22;21924;51.934;7.414;2023-07-31T17:57:20;17.20;99.90
35804;DHT22;21924;51.934;7.414;2023-07-31T18:00:20;17.20;99.90
35804;DHT22;21924;51.934;7.414;2023-07-31T18:14:38;17.20;99.90
35804;DHT22;21924;51.934;7.414;2023-07-31T18:21:53;17.10;99.90
35804;DHT22;21924;51.934;7.414;2023-07-31T18:24:55;17.00;99.90
35804;DHT22;21924;51.934;7.414;2023-07-31T19:58:17;16.70;99.90
35804;DHT22;21924;51.934;7.414;2023-07-31T20:31:05;16.70;99.90
35804;DHT22;21924;51.934;7.414;2023-07-31T20:38:06;16.70;99.90
35804;DHT22;21924;51.934;7.414;2023-07-31T20:59:11;16.60;99.90
35804;DHT22;21924;51.934;7.414;2023-07-31T21:02:16;16.70;99.90
35804;DHT22;21924;51.934;7.414;2023-07-31T21:12:37;16.70;99.90
35804;DHT22;21924;51.934;7.414;2023-07-31T21:27:12;16.50;99.90
35804;DHT22;21924;51.934;7.414;2023-07-31T21:29:56;16.40;99.90
35804;DHT22;21924;51.934;7.414;2023-07-31T21:33:07;16.40;99.90
35804;DHT22;21924;51.934;7.414;2023-07-31T21:36:00;16.30;99.90
35804;DHT22;21924;51.934;7.414;2023-07-31T21:38:50;16.30;99.90
35804;DHT22;21924;51.934;7.414;2023-07-31T21:41:35;16.20;99.90
35804;DHT22;21924;51.934;7.414;2023-07-31T21:44:19;16.20;99.90
35804;DHT22;21924;51.934;7.414;2023-07-31T21:47:03;16.20;99.90
35804;DHT22;21924;51.934;7.414;2023-07-31T21:49:48;16.20;99.90
35804;DHT22;21924;51.934;7.414;2023-07-31T21:52:33;16.20;99.90
35804;DHT22;21924;51.934;7.414;2023-07-31T21:55:17;16.10;99.90
35804;DHT22;21924;51.934;7.414;2023-07-31T21:58:02;16.10;99.90
35804;DHT22;21924;51.934;7.414;2023-07-31T22:00:46;16.10;99.90
35804;DHT22;21924;51.934;7.414;2023-07-31T22:03:32;16.10;99.90
35804;DHT22;21924;51.934;7.414;2023-07-31T22:06:16;16.00;99.90
35804;DHT22;21924;51.934;7.414;2023-07-31T22:09:00;16.00;99.90